createdAt,value
2022-07-29T00:01:43.864Z,2.60
2022-07-29T00:04:11.936Z,2.25
2022-07-29T00:06:39.912Z,2.43
2022-07-29T00:09:08.300Z,2.35
2022-07-29T00:11:37.508Z,2.05
2022-07-29T00:14:06.797Z,1.92
2022-07-29T00:16:34.755Z,1.95
2022-07-29T00:19:02.701Z,1.40
2022-07-29T00:21:30.716Z,1.55
2022-07-29T00:23:58.547Z,1.52
2022-07-29T00:26:28.657Z,1.83
2022-07-29T00:29:23.711Z,1.35
2022-07-29T00:31:45.720Z,1.67
2022-07-29T00:34:27.601Z,1.55
2022-07-29T00:36:55.423Z,1.50
2022-07-29T00:39:23.529Z,1.45
2022-07-29T00:41:51.957Z,1.67
2022-07-29T00:44:22.431Z,1.58
2022-07-29T00:46:50.319Z,1.27
2022-07-29T00:49:18.461Z,1.38
2022-07-29T00:51:46.445Z,1.63
2022-07-29T00:54:14.917Z,1.73
2022-07-29T00:56:42.988Z,1.65
2022-07-29T00:59:10.836Z,1.63
2022-07-29T01:01:40.108Z,1.58
2022-07-29T01:04:09.043Z,1.50
2022-07-29T01:06:37.170Z,1.80
2022-07-29T01:09:05.162Z,1.50
2022-07-29T01:11:33.382Z,1.60
2022-07-29T01:14:03.131Z,1.70
2022-07-29T01:16:34.794Z,1.67
2022-07-29T01:19:14.997Z,1.48
2022-07-29T01:21:53.331Z,1.98
2022-07-29T01:24:41.843Z,1.60
2022-07-29T01:27:28.340Z,1.63
2022-07-29T01:30:01.675Z,2.03
2022-07-29T01:32:37.275Z,2.10
2022-07-29T01:35:10.761Z,1.70
2022-07-29T01:37:45.155Z,1.60
2022-07-29T01:40:20.474Z,1.60
2022-07-29T01:42:52.639Z,1.55
2022-07-29T01:45:26.891Z,1.98
2022-07-29T01:48:02.417Z,1.75
2022-07-29T01:50:35.297Z,1.67
2022-07-29T01:53:06.555Z,1.83
2022-07-29T01:55:38.746Z,1.70
2022-07-29T01:58:07.688Z,1.80
2022-07-29T02:00:38.023Z,1.70
2022-07-29T02:03:11.251Z,1.70
2022-07-29T02:05:41.043Z,1.73
2022-07-29T02:08:10.146Z,1.65
2022-07-29T02:10:44.300Z,1.70
2022-07-29T02:13:14.688Z,1.73
2022-07-29T02:15:45.454Z,1.83
2022-07-29T02:18:17.465Z,2.00
2022-07-29T02:20:48.960Z,2.20
2022-07-29T02:23:20.519Z,1.95
2022-07-29T02:25:50.912Z,1.85
2022-07-29T02:28:22.208Z,1.73
2022-07-29T02:30:54.248Z,2.00
2022-07-29T02:33:23.800Z,2.17
2022-07-29T02:35:53.901Z,1.90
2022-07-29T02:38:41.885Z,1.88
2022-07-29T02:41:13.948Z,1.70
2022-07-29T02:43:44.174Z,1.77
2022-07-29T02:46:28.737Z,1.73
2022-07-29T02:49:03.396Z,1.70
2022-07-29T02:51:43.673Z,1.85
2022-07-29T02:54:23.606Z,1.75
2022-07-29T02:56:54.639Z,1.90
2022-07-29T02:59:27.015Z,1.90
2022-07-29T03:01:57.357Z,1.83
2022-07-29T03:04:29.365Z,1.55
2022-07-29T03:07:01.383Z,1.70
2022-07-29T03:09:30.034Z,1.55
2022-07-29T03:11:59.009Z,1.48
2022-07-29T03:16:57.223Z,2.05
2022-07-29T03:19:25.138Z,1.90
2022-07-29T03:21:53.721Z,1.60
2022-07-29T03:24:33.170Z,2.30
2022-07-29T03:27:01.421Z,2.72
2022-07-29T03:29:33.008Z,1.60
2022-07-29T03:32:07.200Z,1.88
2022-07-29T03:34:35.924Z,1.75
2022-07-29T03:37:03.755Z,1.88
2022-07-29T03:39:35.215Z,1.83
2022-07-29T03:42:04.086Z,1.33
2022-07-29T03:44:33.892Z,1.70
2022-07-29T03:47:04.290Z,1.90
2022-07-29T03:49:34.278Z,1.65
2022-07-29T03:52:02.498Z,1.70
2022-07-29T03:54:30.312Z,2.10
2022-07-29T03:57:01.691Z,1.70
2022-07-29T03:59:29.785Z,2.30
2022-07-29T04:01:58.936Z,2.00
2022-07-29T04:04:28.707Z,1.95
2022-07-29T04:06:56.604Z,1.77
2022-07-29T04:09:24.499Z,2.03
2022-07-29T04:12:03.481Z,1.80
2022-07-29T04:14:32.778Z,1.70
2022-07-29T04:17:00.836Z,1.67
2022-07-29T04:19:30.207Z,1.67
2022-07-29T04:21:59.258Z,1.95
2022-07-29T04:24:27.254Z,1.90
2022-07-29T04:26:55.664Z,2.22
2022-07-29T04:29:23.490Z,1.83
2022-07-29T04:31:51.310Z,2.00
2022-07-29T04:34:19.695Z,1.48
2022-07-29T04:36:49.263Z,1.80
2022-07-29T04:39:22.693Z,1.63
2022-07-29T04:41:52.545Z,2.25
2022-07-29T04:44:28.760Z,2.25
2022-07-29T04:46:57.963Z,2.75
2022-07-29T04:49:25.989Z,1.90
2022-07-29T04:51:55.415Z,2.53
2022-07-29T04:54:23.392Z,1.92
2022-07-29T04:56:54.918Z,1.60
2022-07-29T04:59:22.769Z,1.80
2022-07-29T05:01:50.695Z,1.77
2022-07-29T05:04:19.130Z,1.58
2022-07-29T05:06:47.477Z,2.03
2022-07-29T05:09:17.049Z,1.75
2022-07-29T05:11:44.906Z,1.85
2022-07-29T05:14:12.990Z,1.83
2022-07-29T05:16:41.237Z,1.83
2022-07-29T05:19:13.968Z,1.97
2022-07-29T05:21:42.389Z,1.85
2022-07-29T05:24:10.282Z,1.90
2022-07-29T05:26:39.671Z,1.95
2022-07-29T05:29:07.685Z,2.10
2022-07-29T05:31:55.503Z,2.30
2022-07-29T05:34:23.425Z,2.13
2022-07-29T05:36:51.853Z,1.75
2022-07-29T05:39:19.989Z,2.13
2022-07-29T05:41:51.977Z,1.70
2022-07-29T05:44:20.063Z,2.63
2022-07-29T05:46:47.995Z,1.77
2022-07-29T05:49:22.972Z,2.83
2022-07-29T05:51:55.229Z,2.25
2022-07-29T05:54:23.060Z,2.13
2022-07-29T05:56:55.366Z,2.10
2022-07-29T05:59:27.078Z,2.47
2022-07-29T06:01:58.148Z,2.00
2022-07-29T06:04:26.399Z,2.28
2022-07-29T06:06:54.341Z,2.33
2022-07-29T06:09:22.129Z,2.00
2022-07-29T06:11:49.908Z,1.90
2022-07-29T06:14:19.504Z,2.20
2022-07-29T06:16:47.938Z,2.00
2022-07-29T06:19:15.804Z,1.80
2022-07-29T06:21:44.475Z,2.03
2022-07-29T06:24:13.304Z,1.90
2022-07-29T06:26:41.847Z,2.05
2022-07-29T06:29:11.563Z,2.00
2022-07-29T06:31:41.454Z,2.90
2022-07-29T06:34:09.319Z,2.05
2022-07-29T06:36:37.907Z,2.17
2022-07-29T06:39:07.886Z,2.15
2022-07-29T06:41:36.496Z,2.05
2022-07-29T06:44:10.920Z,2.03
2022-07-29T06:46:40.420Z,2.55
2022-07-29T06:49:08.597Z,2.45
2022-07-29T06:51:36.957Z,2.53
2022-07-29T06:54:06.547Z,2.60
2022-07-29T06:56:39.163Z,2.17
2022-07-29T06:59:09.202Z,2.17
2022-07-29T07:01:38.198Z,1.98
2022-07-29T07:09:03.590Z,2.25
2022-07-29T07:11:31.574Z,1.98
2022-07-29T07:14:03.099Z,1.90
2022-07-29T07:16:32.404Z,1.98
2022-07-29T07:19:00.465Z,2.25
2022-07-29T07:21:30.618Z,2.00
2022-07-29T07:23:58.962Z,1.90
2022-07-29T07:26:27.332Z,2.53
2022-07-29T07:28:55.357Z,2.30
2022-07-29T07:31:23.380Z,1.97
2022-07-29T07:33:52.601Z,1.98
2022-07-29T07:36:20.435Z,2.08
2022-07-29T07:38:49.906Z,2.50
2022-07-29T07:41:17.907Z,2.05
2022-07-29T07:43:45.763Z,1.98
2022-07-29T07:46:16.645Z,2.65
2022-07-29T07:48:44.533Z,2.38
2022-07-29T07:51:12.661Z,2.20
2022-07-29T07:53:40.511Z,2.23
2022-07-29T07:56:12.970Z,2.53
2022-07-29T07:58:41.113Z,2.75
2022-07-29T08:01:10.127Z,2.00
2022-07-29T08:03:38.415Z,2.60
2022-07-29T08:06:06.850Z,2.08
2022-07-29T08:08:34.870Z,2.30
2022-07-29T08:11:09.081Z,2.27
2022-07-29T08:13:40.116Z,2.33
2022-07-29T08:16:16.336Z,2.13
2022-07-29T08:18:45.778Z,2.90
2022-07-29T08:21:15.220Z,2.30
2022-07-29T08:23:52.989Z,2.53
2022-07-29T08:26:29.225Z,2.78
2022-07-29T08:28:58.428Z,2.00
2022-07-29T08:31:26.295Z,2.50
2022-07-29T08:33:54.233Z,2.30
2022-07-29T08:36:22.894Z,2.72
2022-07-29T08:38:51.888Z,2.28
2022-07-29T08:41:20.351Z,2.10
2022-07-29T08:43:48.481Z,1.95
2022-07-29T08:46:18.480Z,2.80
2022-07-29T08:48:46.584Z,2.03
2022-07-29T08:51:16.204Z,2.53
2022-07-29T08:53:45.705Z,2.90
2022-07-29T08:56:14.630Z,2.53
2022-07-29T08:58:45.711Z,2.78
2022-07-29T09:01:35.852Z,2.05
2022-07-29T09:04:14.293Z,2.75
2022-07-29T09:06:46.355Z,2.30
2022-07-29T09:09:16.572Z,2.88
2022-07-29T09:11:45.225Z,2.42
2022-07-29T09:14:14.992Z,2.47
2022-07-29T09:16:55.915Z,2.67
2022-07-29T09:19:26.615Z,2.40
2022-07-29T09:22:03.231Z,3.15
2022-07-29T09:24:43.838Z,3.10
2022-07-29T09:27:20.313Z,2.80
2022-07-29T09:29:48.220Z,2.97
2022-07-29T09:32:17.410Z,2.42
2022-07-29T09:34:45.249Z,2.42
2022-07-29T09:37:13.193Z,2.43
2022-07-29T09:39:46.642Z,2.60
2022-07-29T09:42:15.927Z,2.28
2022-07-29T09:44:46.805Z,2.50
2022-07-29T09:47:14.737Z,3.00
2022-07-29T09:49:59.079Z,2.80
2022-07-29T09:52:28.007Z,2.67
2022-07-29T09:55:06.733Z,2.72
2022-07-29T09:57:34.584Z,2.95
2022-07-29T10:00:06.363Z,3.00
2022-07-29T10:02:41.172Z,2.92
2022-07-29T10:05:19.668Z,3.00
2022-07-29T10:10:23.579Z,2.85
2022-07-29T10:12:56.851Z,2.30
2022-07-29T10:15:26.613Z,2.38
2022-07-29T10:17:56.008Z,2.63
2022-07-29T10:20:26.049Z,2.50
2022-07-29T10:22:54.700Z,2.90
2022-07-29T10:27:54.238Z,3.33
2022-07-29T10:30:23.530Z,3.20
2022-07-29T10:33:13.423Z,3.50
2022-07-29T10:36:04.086Z,2.75
2022-07-29T10:38:53.894Z,2.95
2022-07-29T10:41:44.679Z,2.88
2022-07-29T10:47:05.908Z,2.70
2022-07-29T10:49:33.825Z,3.20
2022-07-29T10:52:08.203Z,2.92
2022-07-29T10:54:51.514Z,2.88
2022-07-29T10:57:25.614Z,2.85
2022-07-29T11:00:32.372Z,3.50
2022-07-29T11:03:04.844Z,3.08
2022-07-29T11:05:56.341Z,3.38
2022-07-29T11:08:29.065Z,2.92
2022-07-29T11:11:37.810Z,3.17
2022-07-29T11:14:05.907Z,3.00
2022-07-29T11:17:08.113Z,2.70
2022-07-29T11:19:40.106Z,3.35
2022-07-29T11:22:10.386Z,2.90
2022-07-29T11:24:50.134Z,2.90
2022-07-29T11:27:20.951Z,3.15
2022-07-29T11:29:56.863Z,2.90
2022-07-29T11:32:29.297Z,3.40
2022-07-29T11:35:14.916Z,2.95
2022-07-29T11:37:52.625Z,3.25
2022-07-29T11:40:25.282Z,3.08
2022-07-29T11:42:55.024Z,2.92
2022-07-29T11:45:44.095Z,2.80
2022-07-29T11:48:28.864Z,2.80
2022-07-29T11:50:59.117Z,2.80
2022-07-29T11:53:28.996Z,2.38
2022-07-29T11:56:02.831Z,1.85
2022-07-29T11:58:32.193Z,2.22
2022-07-29T12:03:48.900Z,2.20
2022-07-29T12:06:18.329Z,2.08
2022-07-29T12:11:55.344Z,2.75
2022-07-29T12:14:27.768Z,2.38
2022-07-29T12:16:56.041Z,2.65
2022-07-29T12:19:24.291Z,2.58
2022-07-29T12:21:56.780Z,2.97
2022-07-29T12:24:27.615Z,2.58
2022-07-29T12:26:58.562Z,2.47
2022-07-29T12:29:33.750Z,2.80
2022-07-29T12:32:05.329Z,2.97
2022-07-29T12:34:34.314Z,2.50
2022-07-29T12:39:32.367Z,3.10
2022-07-29T12:42:04.746Z,2.95
2022-07-29T12:44:46.163Z,2.67
2022-07-29T12:47:14.014Z,2.50
2022-07-29T12:49:42.156Z,2.50
2022-07-29T12:52:30.054Z,2.58
2022-07-29T12:54:58.673Z,3.05
2022-07-29T13:00:08.971Z,2.50
2022-07-29T13:02:37.590Z,2.80
2022-07-29T13:05:07.218Z,2.72
2022-07-29T13:07:55.658Z,2.92
2022-07-29T13:10:25.757Z,2.15
2022-07-29T13:13:11.384Z,2.60
2022-07-29T13:15:40.304Z,2.08
2022-07-29T13:18:28.803Z,2.10
2022-07-29T13:20:57.494Z,1.85
2022-07-29T13:23:25.712Z,1.85
2022-07-29T13:25:53.496Z,1.75
2022-07-29T13:28:24.452Z,1.88
2022-07-29T13:30:52.299Z,1.85
2022-07-29T13:33:20.166Z,1.73
2022-07-29T13:35:48.439Z,1.90
2022-07-29T13:38:16.495Z,1.67
2022-07-29T13:40:44.652Z,1.75
2022-07-29T13:43:12.847Z,1.65
2022-07-29T13:45:42.186Z,1.60
2022-07-29T13:48:10.100Z,1.52
2022-07-29T13:50:37.875Z,1.60
2022-07-29T13:53:05.673Z,1.67
2022-07-29T13:55:33.541Z,1.58
2022-07-29T13:58:02.088Z,1.70
2022-07-29T14:00:32.184Z,2.00
2022-07-29T14:03:01.482Z,1.70
2022-07-29T14:05:29.377Z,1.58
2022-07-29T14:07:57.170Z,2.00
2022-07-29T14:10:24.998Z,1.97
2022-07-29T14:12:52.938Z,1.60
2022-07-29T14:15:21.253Z,1.73
2022-07-29T14:17:49.099Z,1.90
2022-07-29T14:20:18.962Z,1.90
2022-07-29T14:22:46.785Z,1.83
2022-07-29T14:25:15.737Z,2.40
2022-07-29T14:27:44.535Z,2.10
2022-07-29T14:32:40.541Z,1.90
2022-07-29T14:35:09.795Z,1.90
2022-07-29T14:37:40.364Z,2.00
2022-07-29T14:40:09.920Z,2.00
2022-07-29T14:42:38.455Z,2.08
2022-07-29T14:45:07.790Z,2.15
2022-07-29T14:47:36.044Z,2.00
2022-07-29T14:50:04.551Z,2.03
2022-07-29T14:52:32.559Z,2.10
2022-07-29T14:55:01.792Z,2.10
2022-07-29T14:57:29.660Z,2.03
2022-07-29T14:59:57.807Z,2.13
2022-07-29T15:02:45.778Z,2.20
2022-07-29T15:05:13.569Z,2.20
2022-07-29T15:07:41.510Z,1.95
2022-07-29T15:10:10.902Z,2.20
2022-07-29T15:12:42.572Z,2.35
2022-07-29T15:15:11.043Z,2.78
2022-07-29T15:17:38.852Z,2.22
2022-07-29T15:20:07.742Z,2.85
2022-07-29T15:25:03.203Z,2.33
2022-07-29T15:27:32.668Z,2.63
2022-07-29T15:30:00.668Z,2.70
2022-07-29T15:32:28.528Z,2.40
2022-07-29T15:34:56.350Z,2.20
2022-07-29T15:37:24.176Z,2.20
2022-07-29T15:39:52.038Z,2.27
2022-07-29T15:42:19.836Z,2.40
2022-07-29T15:44:48.993Z,2.17
2022-07-29T15:47:16.895Z,2.25
2022-07-29T15:49:47.721Z,1.90
2022-07-29T15:52:25.314Z,2.05
2022-07-29T15:54:54.887Z,2.10
2022-07-29T15:57:23.173Z,2.00
2022-07-29T15:59:52.796Z,2.72
2022-07-29T16:02:20.800Z,2.22
2022-07-29T16:04:48.636Z,2.55
2022-07-29T16:07:16.798Z,3.00
2022-07-29T16:09:50.878Z,1.98
2022-07-29T16:12:22.449Z,1.98
2022-07-29T16:14:52.079Z,2.03
2022-07-29T16:17:20.598Z,2.30
2022-07-29T16:19:48.403Z,2.50
2022-07-29T16:22:16.515Z,1.90
2022-07-29T16:24:45.156Z,2.53
2022-07-29T16:27:12.992Z,2.37
2022-07-29T16:29:40.816Z,2.10
2022-07-29T16:32:10.104Z,2.10
2022-07-29T16:34:38.026Z,2.10
2022-07-29T16:37:05.953Z,2.10
2022-07-29T16:39:33.824Z,2.30
2022-07-29T16:42:04.103Z,2.42
2022-07-29T16:44:34.768Z,2.03
2022-07-29T16:47:03.125Z,2.13
2022-07-29T16:49:32.695Z,2.05
2022-07-29T16:52:00.634Z,2.20
2022-07-29T16:54:28.973Z,2.25
2022-07-29T16:56:57.142Z,2.20
2022-07-29T16:59:25.483Z,2.40
2022-07-29T17:01:53.367Z,2.07
2022-07-29T17:04:22.974Z,2.28
2022-07-29T17:06:52.493Z,1.90
2022-07-29T17:09:21.058Z,2.20
2022-07-29T17:11:54.923Z,1.95
2022-07-29T17:14:25.512Z,2.40
2022-07-29T17:17:01.054Z,2.17
2022-07-29T17:19:30.935Z,2.40
2022-07-29T17:22:10.154Z,2.33
2022-07-29T17:24:40.939Z,2.33
2022-07-29T17:27:09.100Z,2.50
2022-07-29T17:29:36.875Z,2.30
2022-07-29T17:32:07.794Z,2.28
2022-07-29T17:34:36.285Z,2.00
2022-07-29T17:37:05.973Z,2.20
2022-07-29T17:39:35.111Z,2.10
2022-07-29T17:42:03.128Z,2.60
2022-07-29T17:44:31.394Z,3.00
2022-07-29T17:47:00.697Z,2.38
2022-07-29T17:49:29.213Z,2.47
2022-07-29T17:52:00.741Z,2.50
2022-07-29T17:54:30.373Z,2.60
2022-07-29T17:56:58.608Z,2.28
2022-07-29T17:59:27.070Z,2.42
2022-07-29T18:01:54.984Z,2.42
2022-07-29T18:04:23.588Z,3.05
2022-07-29T18:06:51.661Z,2.50
2022-07-29T18:09:19.851Z,3.83
2022-07-29T18:11:49.059Z,6.50
2022-07-29T18:14:16.982Z,2.42
2022-07-29T18:16:46.646Z,4.57
2022-07-29T18:19:14.556Z,2.50
2022-07-29T18:21:51.134Z,2.10
2022-07-29T18:24:22.836Z,2.38
2022-07-29T18:26:52.062Z,2.40
2022-07-29T18:29:19.869Z,2.97
2022-07-29T18:31:47.775Z,2.38
2022-07-29T18:34:16.983Z,2.50
2022-07-29T18:36:45.747Z,2.45
2022-07-29T18:39:19.158Z,2.22
2022-07-29T18:41:50.622Z,2.90
2022-07-29T18:44:21.822Z,2.20
2022-07-29T18:46:50.641Z,2.83
2022-07-29T18:49:18.889Z,2.13
2022-07-29T18:51:46.851Z,2.90
2022-07-29T18:54:14.825Z,2.40
2022-07-29T18:56:42.755Z,3.25
2022-07-29T18:59:11.407Z,2.40
2022-07-29T19:01:40.737Z,2.60
2022-07-29T19:04:08.617Z,1.70
2022-07-29T19:06:36.477Z,2.40
2022-07-29T19:09:04.606Z,2.17
2022-07-29T19:11:32.457Z,2.17
2022-07-29T19:14:00.364Z,2.22
2022-07-29T19:16:28.451Z,2.90
2022-07-29T19:18:57.708Z,3.03
2022-07-29T19:21:25.903Z,2.65
2022-07-29T19:24:05.996Z,2.93
2022-07-29T19:26:39.219Z,4.88
2022-07-29T19:29:07.174Z,3.00
2022-07-29T19:31:35.117Z,2.08
2022-07-29T19:34:04.610Z,1.85
2022-07-29T19:36:32.472Z,2.38
2022-07-29T19:39:00.520Z,1.73
2022-07-29T19:41:28.839Z,2.13
2022-07-29T19:43:56.724Z,1.70
2022-07-29T19:46:28.677Z,2.03
2022-07-29T19:48:57.507Z,2.40
2022-07-29T19:51:27.029Z,2.10
2022-07-29T19:53:54.946Z,1.90
2022-07-29T19:56:25.284Z,2.00
2022-07-29T19:58:53.221Z,2.13
2022-07-29T20:01:21.481Z,1.88
2022-07-29T20:03:49.396Z,2.15
2022-07-29T20:06:17.260Z,2.00
2022-07-29T20:08:46.432Z,1.85
2022-07-29T20:11:14.294Z,1.90
2022-07-29T20:13:42.090Z,1.92
2022-07-29T20:16:10.025Z,2.17
2022-07-29T20:18:37.938Z,2.20
2022-07-29T20:21:05.884Z,1.90
2022-07-29T20:23:33.816Z,2.13
2022-07-29T20:26:06.111Z,2.50
2022-07-29T20:28:37.107Z,2.50
2022-07-29T20:31:05.013Z,2.05
2022-07-29T20:33:32.918Z,2.30
2022-07-29T20:36:00.760Z,2.10
2022-07-29T20:38:30.610Z,2.40
2022-07-29T20:40:58.727Z,2.42
2022-07-29T20:43:28.165Z,2.10
2022-07-29T20:45:56.132Z,2.20
2022-07-29T20:48:24.257Z,2.45
2022-07-29T20:50:52.897Z,2.13
2022-07-29T20:53:20.937Z,2.17
2022-07-29T20:55:48.844Z,2.00
2022-07-29T20:58:16.649Z,2.30
2022-07-29T21:00:45.922Z,1.90
2022-07-29T21:03:14.074Z,2.05
2022-07-29T21:05:43.899Z,1.97
2022-07-29T21:08:12.373Z,2.22
2022-07-29T21:10:40.243Z,2.13
2022-07-29T21:13:08.058Z,2.42
2022-07-29T21:15:36.263Z,2.40
2022-07-29T21:18:09.319Z,2.07
2022-07-29T21:20:37.183Z,2.10
2022-07-29T21:23:05.078Z,2.25
2022-07-29T21:25:34.319Z,2.42
2022-07-29T21:28:19.735Z,2.30
2022-07-29T21:30:47.605Z,2.30
2022-07-29T21:33:16.979Z,2.20
2022-07-29T21:36:01.765Z,2.90
2022-07-29T21:38:33.360Z,3.60
2022-07-29T21:41:01.905Z,2.83
2022-07-29T21:43:29.799Z,2.90
2022-07-29T21:45:58.223Z,3.10
2022-07-29T21:48:29.309Z,3.10
2022-07-29T21:50:57.725Z,3.28
2022-07-29T21:53:27.787Z,3.60
2022-07-29T21:55:55.700Z,2.83
2022-07-29T21:58:24.645Z,2.72
2022-07-29T22:00:52.732Z,2.85
2022-07-29T22:03:20.753Z,2.60
2022-07-29T22:05:49.993Z,3.08
2022-07-29T22:08:17.824Z,2.90
2022-07-29T22:10:45.622Z,2.42
2022-07-29T22:13:13.453Z,2.50
2022-07-29T22:15:46.685Z,2.50
2022-07-29T22:18:20.420Z,2.70
2022-07-29T22:20:50.174Z,2.75
2022-07-29T22:23:18.109Z,2.60
2022-07-29T22:25:45.943Z,3.60
2022-07-29T22:28:13.804Z,2.50
2022-07-29T22:30:41.772Z,2.58
2022-07-29T22:33:09.623Z,2.50
2022-07-29T22:35:48.867Z,2.80
2022-07-29T22:38:18.875Z,2.83
2022-07-29T22:40:48.763Z,2.83
2022-07-29T22:43:18.842Z,2.95
2022-07-29T22:45:46.798Z,2.80
2022-07-29T22:48:14.691Z,2.63
2022-07-29T22:50:42.816Z,3.03
2022-07-29T22:53:10.908Z,2.90
2022-07-29T22:55:40.191Z,3.15
2022-07-29T22:58:08.096Z,3.45
2022-07-29T23:00:37.305Z,3.10
2022-07-29T23:05:33.426Z,3.10
2022-07-29T23:08:01.270Z,3.30
2022-07-29T23:10:29.651Z,3.00
2022-07-29T23:12:58.856Z,2.95
2022-07-29T23:15:26.755Z,3.38
2022-07-29T23:17:54.582Z,3.45
2022-07-29T23:20:22.558Z,3.22
2022-07-29T23:22:50.338Z,3.58
2022-07-29T23:25:18.241Z,3.70
2022-07-29T23:27:46.140Z,3.67
2022-07-29T23:30:15.512Z,3.40
2022-07-29T23:32:43.351Z,3.38
2022-07-29T23:35:11.495Z,3.75
2022-07-29T23:37:39.705Z,3.40
2022-07-29T23:40:13.996Z,3.85
2022-07-29T23:42:43.548Z,3.75
2022-07-29T23:45:12.626Z,4.47
2022-07-29T23:47:42.955Z,4.00
2022-07-29T23:50:13.017Z,4.07
2022-07-29T23:52:41.338Z,3.92
2022-07-29T23:55:36.479Z,3.63
2022-07-29T23:57:57.317Z,3.03
